Date,TemperatureHighF,TemperatureAvgF,TemperatureLowF,DewpointHighF,DewpointAvgF,DewpointLowF,HumidityHigh,HumidityAvg,HumidityLow,PressureMaxIn,PressureMinIn,WindSpeedMaxMPH,WindSpeedAvgMPH,GustSpeedMaxMPH,PrecipitationSumIn
2012-1-1,46.5,37.3,27.3,43.6,35.8,26.5,100,94,83,30.08,29.63,5,0,10,0.04
2012-1-2,43.6,36.4,29.6,43.6,30.5,22.7,100,80,58,29.72,29.54,11,0,12,0.01
2012-1-3,29.6,22.8,12.6,23.0,9.7,-1.6,78,57,45,30.04,29.71,9,2,14,0.00
2012-1-4,24.3,18.0,9.1,10.9,4.5,-1.2,65,55,45,30.13,29.92,7,1,10,0.00
2012-1-5,35.8,28.7,23.8,27.7,19.3,10.4,82,67,56,29.94,29.75,6,0,11,0.00
2012-1-6,41.3,30.7,23.7,32.7,24.7,16.4,88,78,70,29.95,29.73,2,0,5,0.00
2012-1-7,52.4,36.9,26.0,40.1,31.0,23.4,92,80,61,29.90,29.66,7,0,11,0.00
2012-1-8,40.4,32.3,25.8,30.9,25.1,18.7,94,75,56,30.30,29.90,8,0,11,0.00
2012-1-9,35.6,27.3,21.0,22.4,19.4,16.7,86,73,52,30.33,29.98,3,0,5,0.00
2012-1-10,42.4,33.2,26.5,32.1,27.1,22.1,89,78,65,29.98,29.77,4,0,10,0.00
2012-1-11,36.6,28.7,21.6,27.5,23.8,19.1,92,82,67,30.15,29.97,2,0,4,0.00
2012-1-12,33.7,32.2,29.7,33.7,31.5,26.0,100,97,86,30.08,29.57,4,0,6,0.06
2012-1-13,38.6,31.8,27.6,37.6,29.4,21.8,100,91,74,29.60,29.18,12,2,20,0.22
2012-1-14,31.0,26.4,15.6,24.8,18.3,6.6,80,71,61,30.03,29.59,8,1,15,0.00
2012-1-15,15.3,9.8,4.5,6.7,-0.9,-5.0,74,61,50,30.54,30.04,13,2,13,0.00
2012-1-16,30.1,16.9,1.9,27.7,7.8,-3.9,92,68,47,30.61,30.12,5,0,12,0.00
2012-1-17,42.8,36.6,30.1,42.8,34.4,27.7,100,92,81,30.12,29.43,9,0,12,0.44
2012-1-18,45.4,32.6,19.1,44.6,21.9,6.0,100,66,46,30.17,29.41,19,2,19,0.09
2012-1-19,27.9,21.3,12.2,24.3,13.1,4.7,91,71,55,30.33,29.98,6,0,10,0.00
2012-1-20,28.1,22.6,15.7,24.3,15.4,9.1,92,74,52,30.30,29.94,11,1,15,0.00
2012-1-21,19.4,17.0,11.4,15.1,11.9,7.0,84,80,65,30.38,30.16,2,0,4,0.00
2012-1-22,27.5,18.1,3.3,22.3,12.1,-2.3,85,77,65,30.60,30.38,4,0,5,0.00
2012-1-23,34.3,30.5,26.5,33.0,28.0,22.0,99,90,83,30.54,29.89,0,0,1,0.11
2012-1-24,49.3,40.0,33.1,44.3,36.9,31.4,100,89,75,30.07,29.86,5,0,9,0.30
2012-1-25,38.7,35.6,32.6,31.4,29.0,28.0,85,77,67,30.22,30.06,6,0,10,0.00
2012-1-26,40.0,34.7,30.5,32.5,30.1,27.5,96,84,61,30.24,29.99,2,0,6,0.09
2012-1-27,37.2,35.3,33.2,37.2,34.9,32.6,100,99,89,29.99,29.32,11,0,11,1.18
2012-1-28,42.9,38.1,31.8,34.0,31.7,29.0,91,78,66,30.01,29.64,7,0,12,0.00
2012-1-29,39.8,34.7,29.9,31.7,22.4,19.3,85,61,46,30.09,29.89,9,1,16,0.00
2012-1-30,36.0,31.9,25.0,27.4,20.0,14.5,82,62,44,30.30,29.94,12,1,22,0.00
2012-1-31,38.5,31.3,25.3,29.1,25.6,19.4,90,79,67,30.31,30.04,1,0,3,0.00
2012-2-1,51.6,39.2,31.5,46.2,36.2,28.6,98,89,77,30.04,29.77,7,1,13,0.04
2012-2-2,37.9,34.5,30.4,33.5,30.2,22.9,94,84,73,30.23,29.98,3,0,7,0.00
2012-2-3,36.1,29.9,22.8,24.1,18.7,14.5,78,64,42,30.41,30.23,7,1,13,0.00
2012-2-4,38.7,31.3,25.1,26.8,22.1,14.7,88,69,52,30.28,30.14,8,0,13,0.00
2012-2-5,34.9,25.9,17.5,16.6,14.7,12.2,82,64,42,30.21,30.09,4,0,7,0.00
2012-2-6,47.8,35.8,21.7,29.1,24.1,15.9,80,64,43,30.11,29.85,7,1,11,0.00
2012-2-7,41.1,33.1,26.3,30.3,25.3,20.7,87,73,59,30.27,29.90,8,0,10,0.00
2012-2-8,36.3,28.1,18.1,20.6,16.1,13.1,82,62,40,30.36,30.08,6,0,7,0.00
2012-2-9,43.7,32.6,23.3,22.9,19.4,16.5,81,60,34,30.12,29.99,5,0,10,0.00
2012-2-10,46.6,34.3,21.4,28.0,22.9,16.1,83,65,43,30.14,29.90,8,1,13,0.00
2012-2-11,39.1,34.5,26.4,28.6,25.2,14.0,82,69,58,29.90,29.58,11,1,16,0.00
2012-2-12,26.0,19.5,14.8,13.4,2.9,-0.1,59,48,38,29.91,29.60,13,2,20,0.00
2012-2-13,38.5,27.2,14.6,23.9,16.4,1.9,80,64,49,30.00,29.81,11,1,16,0.00
2012-2-14,41.2,30.8,21.1,23.0,19.8,16.6,85,66,40,30.13,30.00,5,0,6,0.00
2012-2-15,42.9,35.0,30.0,36.5,29.6,22.1,90,80,69,30.28,30.12,3,0,3,0.00
2012-2-16,43.7,34.7,24.1,36.4,30.8,21.4,97,86,68,30.32,30.05,2,0,4,0.05
2012-2-17,46.8,39.1,28.2,40.3,33.0,23.1,100,80,56,30.05,29.88,7,1,11,0.01
2012-2-18,43.9,35.1,26.4,33.1,26.4,22.3,92,72,45,30.01,29.86,8,1,12,0.01
2012-2-19,41.9,32.5,24.7,29.0,24.1,19.9,94,73,47,30.11,30.00,4,0,10,0.00
2012-2-20,38.2,30.5,24.6,20.2,16.9,11.5,79,59,36,30.34,30.05,11,1,13,0.00
2012-2-21,42.2,31.7,18.6,32.1,22.3,14.3,87,69,46,30.39,29.87,6,0,10,0.00
2012-2-22,51.9,40.5,30.4,39.7,31.4,27.8,93,72,44,29.87,29.54,7,1,14,0.00
2012-2-23,49.4,39.8,33.2,43.6,32.4,26.9,93,75,54,29.83,29.41,16,1,20,0.01
2012-2-24,36.3,34.0,30.9,36.3,31.2,26.1,100,90,78,29.84,29.25,6,0,10,0.94
2012-2-25,41.1,35.7,29.9,35.3,27.3,18.4,100,72,53,29.85,29.23,12,3,33,0.01
2012-2-26,37.3,30.7,24.3,19.1,11.9,5.6,65,47,31,30.47,29.85,16,2,16,0.00
2012-2-27,47.4,35.1,20.9,34.0,25.1,15.4,82,67,55,30.50,30.06,6,0,11,0.00
2012-2-28,43.4,37.9,29.1,32.1,23.8,17.6,74,57,40,30.43,30.07,13,2,17,0.00
2012-2-29,34.6,31.3,29.3,30.1,25.5,19.8,97,79,63,30.43,29.97,2,0,3,0.00
2012-3-1,33.8,29.0,23.1,33.3,27.7,20.6,100,95,90,30.08,29.83,4,0,7,0.00
2012-3-2,30.3,26.3,22.2,28.4,23.9,19.7,96,91,86,30.21,30.01,0,0,0,0.00
2012-3-3,42.2,34.5,29.2,41.7,34.0,28.2,100,98,88,30.01,29.41,3,0,7,0.00
2012-3-4,41.7,33.6,27.5,31.4,27.6,23.0,95,80,58,29.72,29.55,4,0,14,0.23
2012-3-5,34.4,28.4,21.3,23.0,16.9,12.8,80,62,46,30.36,29.68,11,2,15,0.13
2012-3-6,37.0,25.6,14.5,18.7,12.2,6.5,76,59,33,30.61,30.36,9,1,10,0.11
2012-3-7,53.9,39.3,23.3,38.0,29.4,17.2,86,69,51,30.60,30.25,7,1,12,0.21
2012-3-8,63.9,54.7,43.5,52.4,47.7,38.4,92,78,63,30.25,29.69,14,2,21,0.00
2012-3-9,58.9,40.5,32.7,53.5,29.6,22.6,90,66,42,30.18,29.69,8,1,15,0.04
2012-3-10,38.3,32.2,26.1,28.5,22.7,20.4,84,68,53,30.55,30.18,5,1,10,0.00
2012-3-11,54.9,39.0,23.8,32.8,26.7,20.5,89,64,41,30.54,30.27,8,1,11,0.00
2012-3-12,67.5,49.5,31.9,42.1,35.7,28.1,87,63,33,30.31,30.13,7,1,9,0.00
2012-3-13,68.8,56.3,46.9,58.8,50.5,39.7,100,81,67,30.13,29.88,10,1,12,0.07
2012-3-14,61.0,49.5,40.2,54.4,46.9,38.6,100,92,50,30.30,29.97,4,1,10,0.14
2012-3-15,46.2,40.5,36.8,41.8,37.9,35.0,97,91,76,30.42,30.29,5,0,5,0.03
2012-3-16,43.5,39.9,34.7,43.5,38.6,33.1,100,95,87,30.39,30.13,5,0,6,0.15
2012-3-17,52.4,45.4,37.6,47.5,43.6,35.7,100,94,81,30.41,30.20,3,0,4,0.00
2012-3-18,73.2,52.2,33.9,59.0,46.4,32.8,100,83,55,30.37,30.16,4,0,7,0.01
2012-3-19,76.8,57.4,42.1,59.1,49.5,40.9,100,77,49,30.31,30.15,6,1,11,0.00
2012-3-20,76.9,58.7,40.6,61.3,50.6,38.6,96,77,49,30.36,30.23,6,1,11,0.00
2012-3-21,77.8,64.7,50.6,62.7,57.4,49.2,100,79,55,30.36,30.24,7,1,9,0.00
2012-3-22,79.2,65.9,52.5,63.6,57.9,51.6,100,78,48,30.26,30.02,7,1,11,0.00
2012-3-23,72.5,62.8,54.9,55.2,46.5,34.8,96,59,34,30.19,30.02,7,1,13,0.00
2012-3-24,57.0,51.7,47.8,40.4,35.6,30.1,73,55,39,30.21,30.08,4,0,7,0.00
2012-3-25,47.7,45.3,43.3,43.3,41.6,39.1,94,87,72,30.08,29.76,3,0,4,0.08
2012-3-26,44.0,39.0,30.3,41.8,26.5,8.7,100,64,39,30.05,29.66,15,3,24,0.00
2012-3-27,45.3,34.7,25.0,17.7,6.2,-2.0,53,32,14,30.22,30.04,12,3,19,0.00
2012-3-28,52.2,42.0,32.8,46.0,31.4,17.1,93,67,41,30.19,29.58,5,0,7,0.02
2012-3-29,45.5,43.1,37.7,42.8,35.6,30.2,93,75,61,29.97,29.58,10,1,12,0.00
2012-3-30,49.1,41.0,33.7,30.5,24.4,15.5,85,55,27,30.08,29.98,13,1,19,0.00
2012-3-31,47.3,40.8,32.8,34.2,30.1,22.6,85,66,50,30.09,29.92,6,0,7,0.00
2012-4-1,52.9,40.7,27.2,42.1,33.9,24.1,95,79,51,29.94,29.66,5,0,8,0.11
2012-4-2,51.5,43.4,35.6,41.3,30.2,17.2,96,65,31,29.87,29.64,10,2,16,0.03
2012-4-3,56.1,42.5,26.8,28.2,21.2,13.9,79,47,23,29.91,29.76,10,2,16,0.00
2012-4-4,60.5,48.2,36.7,41.9,32.2,26.3,86,57,29,29.79,29.51,13,2,19,0.02
2012-4-5,49.6,41.3,32.8,35.1,30.0,25.6,90,65,47,29.95,29.70,11,1,17,0.01
2012-4-6,50.4,39.8,27.4,30.1,24.8,20.6,85,58,34,30.03,29.92,10,1,12,0.00
2012-4-7,53.7,42.7,28.6,31.3,25.9,20.9,77,53,36,30.07,29.94,12,1,14,0.00
2012-4-8,52.2,45.4,39.9,35.7,31.0,26.6,76,58,44,30.03,29.64,9,1,16,0.00
2012-4-9,54.5,47.1,35.8,38.8,35.8,30.9,84,65,52,29.67,29.53,12,2,15,0.00
2012-4-10,59.5,48.6,38.6,36.9,34.1,30.7,80,59,39,29.80,29.64,10,1,14,0.00
2012-4-11,57.4,47.8,41.1,43.7,36.6,31.9,93,66,46,29.93,29.80,5,1,8,0.07
2012-4-12,56.7,47.4,40.5,44.3,41.4,37.7,95,81,51,30.14,29.92,10,1,14,0.04
2012-4-13,62.9,48.9,31.6,42.9,33.9,29.2,95,62,29,30.19,30.05,7,1,15,0.00
2012-4-14,69.8,55.1,35.0,42.0,35.3,30.3,84,52,26,30.19,30.00,6,1,9,0.00
2012-4-15,76.9,63.8,47.6,60.4,52.3,40.5,84,67,54,30.03,29.92,7,1,10,0.00
2012-4-16,88.0,73.8,58.1,68.0,60.4,56.7,98,67,36,30.04,29.89,7,1,10,0.00
2012-4-17,80.5,70.4,58.7,59.9,47.8,34.7,82,49,21,30.18,29.89,10,2,12,0.00
2012-4-18,64.9,55.7,46.7,43.6,37.1,32.5,79,51,36,30.31,30.15,6,1,8,0.00
2012-4-19,71.4,57.0,39.1,47.3,41.1,34.5,92,60,27,30.17,29.98,7,1,8,0.00
2012-4-20,79.2,63.7,45.3,57.2,49.3,42.0,90,63,35,30.05,29.91,10,1,12,0.00
2012-4-21,78.0,66.4,57.3,61.9,57.2,50.9,90,73,51,29.93,29.69,6,1,13,0.00
2012-4-22,63.5,51.5,42.3,60.6,49.8,42.1,100,94,86,29.88,29.71,5,1,8,1.25
2012-4-23,59.2,48.2,39.9,59.2,48.1,39.9,100,100,92,29.76,29.32,6,1,11,1.41
2012-4-24,54.7,48.8,43.7,47.3,40.8,37.0,95,75,54,29.73,29.42,8,2,14,0.00
2012-4-25,61.3,49.0,36.0,43.4,39.2,33.6,96,71,46,29.92,29.73,7,1,11,0.00
2012-4-26,65.1,51.1,34.3,51.5,41.4,31.5,96,72,42,30.00,29.59,5,1,9,0.03
2012-4-27,55.6,49.4,39.7,51.7,40.3,27.7,99,72,52,30.05,29.54,9,3,18,0.08
2012-4-28,57.0,46.6,34.9,33.2,27.8,23.4,69,50,28,30.18,30.05,8,2,14,0.00
2012-4-29,58.8,47.5,35.0,33.8,27.8,17.1,86,51,22,30.27,30.05,9,1,16,0.00
2012-4-30,63.6,50.0,30.8,40.1,31.5,25.0,81,52,31,30.40,30.22,4,1,7,0.00
2012-5-1,53.1,47.0,44.1,47.9,44.1,36.7,100,91,56,30.24,30.12,7,0,7,0.79
2012-5-2,52.9,48.1,43.9,49.7,46.6,43.7,100,95,87,30.28,30.19,4,0,7,0.00
2012-5-3,53.3,49.9,46.5,52.4,49.6,46.1,100,99,97,30.26,30.13,2,0,3,0.13
2012-5-4,57.3,53.2,50.3,57.3,53.2,50.3,100,100,100,30.16,29.97,4,0,6,0.06
2012-5-5,67.3,57.8,51.5,61.1,55.7,51.5,100,93,78,30.14,29.99,4,0,9,0.03
2012-5-6,63.3,56.5,48.5,54.8,51.9,46.1,100,85,67,30.18,30.10,5,0,9,0.00
2012-5-7,71.2,57.0,41.3,58.2,48.4,39.8,99,75,49,30.21,30.10,7,1,9,0.00
2012-5-8,56.1,53.4,49.3,56.0,51.8,47.8,100,95,79,30.14,29.90,7,0,8,0.54
2012-5-9,64.1,60.2,55.9,64.1,60.2,55.9,100,100,98,29.91,29.63,3,0,5,0.03
2012-5-10,62.1,56.2,48.6,60.5,53.2,44.6,100,90,71,29.73,29.44,10,1,10,0.56
2012-5-11,64.2,53.6,44.0,46.8,43.6,39.7,94,71,46,30.11,29.73,8,1,13,0.00
2012-5-12,76.5,59.8,38.0,54.6,45.3,35.7,100,64,33,30.20,30.08,8,1,11,0.00
2012-5-13,82.3,66.4,49.5,61.5,55.3,47.7,96,71,41,30.20,30.07,7,1,11,0.00
2012-5-14,69.0,62.7,58.4,64.8,59.6,52.7,100,90,79,30.23,30.14,3,0,4,0.19
2012-5-15,70.4,63.6,59.2,64.4,61.8,59.2,100,94,72,30.19,30.01,7,0,9,0.54
2012-5-16,73.1,65.7,61.1,70.1,64.6,61.1,100,97,84,30.01,29.83,3,0,7,0.16
2012-5-17,68.7,59.7,49.8,62.4,50.7,43.6,100,75,44,30.20,29.91,6,1,9,0.01
2012-5-18,73.3,59.1,41.8,54.8,48.7,40.0,98,71,44,30.31,30.18,5,0,6,0.00
2012-5-19,78.9,63.8,45.8,60.1,53.3,43.8,96,72,44,30.25,30.14,6,0,6,0.00
2012-5-20,82.8,67.3,51.4,66.7,57.0,50.0,97,72,46,30.35,30.21,6,0,8,0.00
2012-5-21,69.8,60.8,49.5,66.1,58.2,47.6,100,91,84,30.36,30.13,6,0,6,0.01
2012-5-22,65.0,61.9,58.9,65.0,61.9,58.9,100,100,100,30.13,29.89,2,0,4,0.11
2012-5-23,76.5,67.7,61.6,72.3,66.4,61.6,100,96,81,30.10,29.90,3,0,4,0.24
2012-5-24,77.3,68.1,59.5,71.3,65.4,59.5,100,91,76,30.29,30.10,4,0,9,0.00
2012-5-25,75.1,67.1,62.1,71.3,65.9,61.8,100,96,85,30.30,30.13,3,0,7,0.00
2012-5-26,83.1,74.2,63.2,76.9,69.6,60.5,100,87,55,30.14,30.06,4,0,8,0.00
2012-5-27,81.2,69.6,56.4,66.7,61.7,55.5,99,78,56,30.22,30.05,6,0,7,0.00
2012-5-28,79.8,69.2,59.9,69.9,62.6,57.6,96,80,66,30.08,29.95,8,0,8,0.00
2012-5-29,69.9,64.6,61.1,68.8,64.0,60.0,100,98,87,29.99,29.75,3,0,6,0.03
2012-5-30,75.7,68.6,64.0,70.6,66.7,63.4,100,94,75,29.79,29.73,3,0,4,0.10
2012-5-31,79.5,69.7,60.7,64.6,60.7,54.9,100,76,47,29.98,29.76,6,1,9,0.00
2012-6-1,73.2,63.6,54.8,57.2,53.1,46.2,93,70,50,30.13,29.98,5,1,8,0.00
2012-6-2,60.6,57.5,53.7,60.6,56.4,50.6,100,96,79,30.06,29.73,5,0,5,0.42
2012-6-3,64.0,59.1,54.6,60.2,56.7,52.3,100,92,80,29.77,29.71,4,1,6,0.25
2012-6-4,54.7,52.1,50.7,54.2,51.7,50.0,100,99,94,29.87,29.69,3,0,9,0.00
2012-6-5,59.6,53.5,50.2,55.7,52.3,50.2,100,96,82,30.00,29.84,3,0,5,0.00
2012-6-6,67.0,57.3,49.5,60.6,55.2,49.5,100,93,75,30.04,29.98,2,0,5,0.00
2012-6-7,70.1,59.5,48.8,64.0,57.4,48.8,100,93,72,30.03,29.95,4,0,5,0.00
2012-6-8,78.3,63.6,50.5,67.8,60.2,50.2,100,90,65,29.99,29.79,5,0,9,0.59
2012-6-9,77.7,67.2,53.7,65.3,59.5,52.9,100,78,50,29.99,29.83,5,1,8,0.01
2012-6-10,81.5,68.1,54.5,63.4,57.7,53.6,99,73,44,30.27,29.99,4,0,6,0.00
2012-6-11,75.9,65.2,55.1,65.7,59.1,53.7,97,81,66,30.34,30.24,6,0,11,0.00
2012-6-12,77.7,68.0,60.6,69.1,62.7,56.2,98,83,71,30.25,30.00,6,1,10,0.07
2012-6-13,70.9,65.6,62.8,70.8,65.6,62.8,100,100,97,30.12,29.94,2,0,5,0.77
2012-6-14,73.8,64.9,56.7,66.0,60.8,56.7,100,88,65,30.32,30.12,4,0,8,0.00
2012-6-15,76.4,64.7,51.5,62.7,57.0,50.6,100,78,54,30.38,30.30,8,0,8,0.00
2012-6-16,75.5,62.4,51.4,65.5,57.3,50.3,99,84,64,30.42,30.33,6,1,8,0.00
2012-6-17,72.8,61.3,50.0,62.4,55.4,48.6,100,82,63,30.34,30.15,5,0,8,0.00
2012-6-18,69.1,60.4,54.9,60.9,56.4,52.3,95,87,70,30.23,30.13,4,0,6,0.00
2012-6-19,74.8,64.7,51.6,73.8,61.9,50.7,100,91,81,30.20,30.05,5,0,9,0.00
2012-6-20,93.9,80.7,65.6,83.0,75.7,65.6,100,86,65,30.06,29.90,4,0,9,0.00
2012-6-21,92.6,82.2,70.7,80.7,75.9,70.7,100,83,57,29.91,29.76,6,0,9,0.00
2012-6-22,93.5,80.7,69.0,78.7,74.0,69.0,100,82,57,29.81,29.72,5,1,9,0.00
2012-6-23,85.6,74.9,64.2,72.5,67.6,62.4,96,80,54,29.97,29.80,8,0,13,0.00
2012-6-24,84.8,72.4,57.7,66.8,61.7,56.4,99,72,43,30.00,29.89,7,0,9,0.00
2012-6-25,72.4,67.8,62.5,69.3,65.0,60.5,100,91,76,29.89,29.67,3,0,6,0.56
2012-6-26,71.5,63.9,57.9,63.8,60.0,56.1,99,88,73,29.69,29.61,10,1,14,0.00
2012-6-27,73.7,65.9,59.2,65.3,60.6,55.9,97,83,70,29.78,29.60,6,1,10,0.02
2012-6-28,84.1,72.5,59.9,67.6,62.5,57.9,95,73,47,29.79,29.71,8,1,10,0.01
2012-6-29,88.8,73.7,62.1,78.8,67.0,58.8,100,82,44,29.75,29.57,5,1,10,0.08
2012-6-30,88.1,75.7,59.3,70.4,64.7,57.2,96,71,48,29.77,29.67,7,1,12,0.00
2012-7-1,90.2,77.7,62.8,72.8,66.8,60.8,99,72,43,29.87,29.76,6,1,13,0.00
2012-7-2,82.9,74.3,65.3,70.1,66.6,62.9,100,78,56,29.92,29.86,4,0,8,0.00
2012-7-3,84.7,73.8,60.7,71.6,62.6,57.8,100,72,41,29.97,29.87,6,1,11,0.00
2012-7-4,87.5,76.1,65.7,80.5,71.7,62.8,100,87,69,29.88,29.70,4,0,6,0.50
2012-7-5,82.0,74.9,67.5,72.5,69.1,65.7,100,83,64,29.89,29.70,6,1,9,0.00
2012-7-6,86.9,75.2,60.8,81.3,69.4,59.8,100,84,61,29.95,29.84,5,0,6,0.00
2012-7-7,80.5,75.7,69.1,80.5,74.0,64.1,100,95,79,29.85,29.76,3,0,4,0.00
2012-7-8,87.1,75.4,61.7,73.9,67.0,61.1,100,77,50,29.91,29.79,5,1,10,0.00
2012-7-9,82.4,71.0,57.5,63.4,59.4,55.4,100,70,43,30.02,29.91,6,1,12,0.00
2012-7-10,83.9,70.5,54.2,64.9,59.0,52.5,95,70,42,30.11,30.02,5,0,7,0.00
2012-7-11,86.8,73.4,57.8,67.1,62.0,56.0,97,70,43,30.23,30.11,4,0,7,0.00
2012-7-12,90.5,77.3,61.7,73.3,66.5,60.0,97,72,42,30.22,30.10,4,0,6,0.00
2012-7-13,90.2,78.9,66.5,79.0,71.4,63.8,94,78,61,30.21,30.12,6,1,9,0.00
2012-7-14,90.5,79.6,71.4,75.9,70.5,66.5,95,75,46,30.18,30.07,9,0,9,0.00
2012-7-15,90.8,79.3,67.1,81.3,73.2,66.8,100,83,56,30.13,29.90,3,0,6,0.01
2012-7-16,90.5,80.9,70.3,77.3,74.2,70.3,100,81,59,29.90,29.75,6,1,8,0.00
2012-7-17,92.9,82.4,68.8,78.5,73.9,68.2,100,77,57,29.82,29.66,10,1,14,0.00
2012-7-18,90.1,81.4,74.3,80.9,75.8,67.8,95,83,70,29.94,29.70,4,0,7,0.00
2012-7-19,83.5,74.5,67.5,68.2,62.5,57.8,83,67,49,30.05,29.93,6,0,7,0.00
2012-7-20,74.4,68.7,62.0,68.0,62.3,58.5,100,80,69,30.12,30.05,3,0,6,0.00
2012-7-21,81.6,68.8,53.1,64.3,58.3,51.5,98,72,47,30.14,30.07,4,0,8,0.00
2012-7-22,87.9,74.1,57.5,70.9,63.4,55.3,96,71,48,30.15,30.06,9,1,9,0.00
2012-7-23,86.7,76.8,67.5,76.0,70.8,63.7,98,82,64,30.10,29.77,6,1,10,0.06
2012-7-24,89.9,77.1,69.1,88.2,71.5,64.8,100,85,57,29.78,29.54,7,1,12,0.12
2012-7-25,82.8,72.6,62.2,68.9,59.9,57.0,100,66,44,29.84,29.73,7,1,9,0.00
2012-7-26,83.0,73.1,64.7,75.2,68.1,60.6,98,85,73,29.81,29.60,8,0,8,0.02
2012-7-27,74.2,71.1,69.0,73.4,70.9,68.9,100,99,94,29.93,29.63,3,0,3,0.24
2012-7-28,84.6,72.3,65.1,75.6,70.3,65.1,100,94,71,30.01,29.93,4,0,7,0.36
2012-7-29,74.0,68.3,62.4,70.5,67.0,61.5,100,96,80,30.10,29.96,3,0,6,0.01
2012-7-30,84.7,71.3,56.6,72.4,65.4,56.0,100,83,62,30.16,30.06,4,1,9,0.00
2012-7-31,81.1,71.6,60.1,75.6,66.2,58.8,100,84,62,30.14,29.93,5,1,8,0.00
2012-8-1,81.7,73.6,66.1,77.5,71.2,65.2,99,93,75,29.94,29.84,6,0,7,0.07
2012-8-2,90.0,78.5,68.5,78.0,72.4,68.5,100,83,57,29.91,29.82,4,0,8,0.00
2012-8-3,92.0,80.1,67.4,77.6,72.1,67.0,100,79,50,30.10,29.91,7,1,9,0.00
2012-8-4,93.1,78.8,69.2,88.7,74.1,68.6,100,87,56,30.27,30.10,6,1,10,0.97
2012-8-5,90.3,76.2,67.3,80.1,73.9,67.3,100,93,68,30.24,29.93,9,1,18,0.83
2012-8-6,82.0,75.0,64.8,75.0,69.2,62.9,100,83,61,30.01,29.92,5,1,8,0.00
2012-8-7,83.4,72.2,58.5,71.3,65.5,57.4,100,81,61,30.06,29.95,6,0,9,0.00
2012-8-8,87.8,74.7,60.2,74.9,67.2,59.1,100,79,51,30.01,29.94,4,0,6,0.00
2012-8-9,88.1,76.2,65.9,78.5,72.4,65.6,100,89,66,29.98,29.89,4,0,6,0.00
2012-8-10,83.7,75.0,70.6,78.1,73.8,70.6,100,96,78,29.94,29.80,6,0,6,0.47
2012-8-11,79.4,72.7,66.2,77.8,72.5,66.2,100,99,92,29.93,29.84,3,0,4,0.40
2012-8-12,82.4,75.4,70.5,79.2,74.4,70.5,100,97,84,29.94,29.84,6,0,8,0.18
2012-8-13,82.0,75.6,65.1,81.0,70.5,65.1,100,85,66,29.95,29.90,3,0,5,0.00
2012-8-14,83.5,72.6,62.1,73.8,68.3,61.8,100,87,66,29.98,29.91,3,0,6,0.00
2012-8-15,81.2,73.5,66.8,75.6,71.2,66.8,100,93,76,29.94,29.84,5,0,6,0.40
2012-8-16,80.4,72.8,65.3,73.1,68.9,63.8,100,89,65,29.88,29.80,5,0,8,1.07
2012-8-17,85.3,73.2,59.7,74.9,68.4,59.0,100,86,67,29.88,29.75,10,1,11,0.19
2012-8-18,76.7,70.1,61.9,70.1,67.2,60.1,100,91,71,29.92,29.83,2,0,2,0.04
2012-8-19,74.1,65.6,53.8,66.9,61.0,52.8,100,86,67,30.01,29.91,0,0,0,0.00
2012-8-20,77.9,68.0,55.9,68.3,62.7,54.9,99,84,60,29.97,29.84,0,0,0,0.00
2012-8-21,79.7,70.8,63.0,68.7,63.8,60.5,99,80,53,30.10,29.92,2,0,5,0.00
2012-8-22,81.4,68.8,55.5,68.1,61.7,54.1,98,80,53,30.18,30.09,5,0,5,0.00
2012-8-23,83.5,72.1,59.3,71.8,66.4,58.4,100,83,59,30.18,30.08,5,0,7,0.00
2012-8-24,82.7,71.4,60.9,72.8,67.1,60.0,100,87,64,30.23,30.13,5,0,5,0.00
2012-8-25,80.4,71.4,63.8,72.2,67.3,61.7,100,88,69,30.35,30.23,3,0,8,0.00
2012-8-26,81.3,70.0,57.9,70.1,64.7,56.7,99,84,63,30.37,30.23,4,0,5,0.00
2012-8-27,83.9,72.0,57.9,74.4,67.2,57.0,100,86,68,30.24,29.92,6,1,8,0.00
2012-8-28,81.4,75.0,66.1,75.7,71.5,63.1,100,89,72,29.92,29.71,8,0,8,0.41
2012-8-29,73.5,64.8,55.0,62.9,57.2,52.4,97,78,54,30.00,29.90,6,0,6,0.00
2012-8-30,78.7,65.9,50.8,64.9,58.5,49.4,100,79,57,30.06,29.95,7,1,11,0.00
2012-8-31,86.2,73.9,60.2,69.3,63.5,56.8,90,71,50,29.97,29.80,8,1,10,0.00
2012-9-1,77.9,70.7,63.6,71.5,66.0,60.9,96,85,73,30.12,29.85,5,0,7,0.00
2012-9-2,75.7,67.0,60.2,69.2,62.5,58.1,97,86,71,30.16,30.05,3,0,7,0.00
2012-9-3,75.8,66.6,59.0,65.7,62.2,57.2,100,87,64,30.24,30.12,4,0,8,0.00
2012-9-4,69.4,66.4,63.5,69.4,65.4,60.5,100,97,85,30.16,29.86,2,0,5,0.01
2012-9-5,77.8,73.4,68.4,75.4,71.9,68.4,100,95,80,29.86,29.69,6,0,8,0.38
2012-9-6,78.1,71.7,66.1,73.1,69.6,66.1,100,93,80,29.91,29.83,4,0,5,0.00
2012-9-7,81.5,72.6,63.2,75.0,69.4,62.9,100,90,67,29.93,29.85,4,0,5,0.01
2012-9-8,81.2,73.7,65.2,76.3,71.6,64.5,100,94,75,29.88,29.59,9,1,16,0.20
2012-9-9,71.9,64.8,58.1,64.5,61.5,56.0,100,90,67,29.85,29.70,5,0,6,0.01
2012-9-10,65.2,59.2,53.2,56.9,53.1,48.8,99,81,60,30.08,29.85,8,1,13,0.00
2012-9-11,70.9,58.1,43.8,57.0,50.3,42.0,99,77,49,30.28,30.08,4,0,6,0.00
2012-9-12,75.0,60.7,45.9,63.9,54.7,44.2,99,82,58,30.38,30.28,6,0,6,0.00
2012-9-13,80.1,65.3,51.4,68.1,59.9,50.4,100,84,60,30.38,30.25,5,0,8,0.00
2012-9-14,80.3,67.6,54.8,70.4,62.7,53.7,100,85,62,30.26,30.06,6,0,8,0.00
2012-9-15,71.3,64.0,53.3,63.1,57.4,49.8,100,81,55,30.06,29.99,8,1,14,0.01
2012-9-16,68.4,56.7,45.1,54.5,48.6,43.1,98,77,44,30.10,29.99,8,1,10,0.00
2012-9-17,73.6,58.0,41.6,62.1,51.9,39.1,97,81,58,30.12,30.01,3,0,6,0.00
2012-9-18,70.1,62.1,52.2,70.1,61.5,51.0,100,98,92,30.05,29.67,9,1,13,0.87
2012-9-19,69.2,62.1,49.5,69.2,56.3,46.9,100,83,53,30.21,29.67,9,1,13,0.08
2012-9-20,65.4,53.6,42.8,54.8,48.7,41.2,98,84,65,30.30,30.16,3,0,7,0.00
2012-9-21,64.3,53.7,44.4,57.3,50.5,43.1,99,90,75,30.20,30.07,1,0,1,0.00
2012-9-22,71.3,61.4,51.9,66.8,59.3,50.8,100,93,82,30.07,29.81,6,0,6,0.00
2012-9-23,66.8,60.8,47.9,64.5,55.2,45.1,100,83,57,30.11,29.80,7,1,10,0.07
2012-9-24,63.5,51.2,40.1,51.1,44.9,37.9,100,81,56,30.16,30.06,6,0,9,0.00
2012-9-25,69.0,53.8,37.6,54.1,46.8,35.4,100,79,53,30.17,30.10,14,1,14,0.00
2012-9-26,70.9,63.4,55.7,66.5,61.4,53.9,100,93,84,30.13,29.99,8,1,13,0.01
2012-9-27,66.6,59.8,48.9,62.1,53.8,46.1,100,82,56,30.26,29.98,5,0,10,0.00
2012-9-28,53.5,50.9,47.7,53.5,50.4,45.4,100,98,91,30.26,30.02,2,0,3,0.69
2012-9-29,56.8,54.3,51.8,56.8,54.3,51.8,100,100,98,30.02,29.90,1,0,3,0.00
2012-9-30,59.6,55.5,51.0,58.7,55.3,50.5,100,99,96,29.93,29.70,4,0,4,0.02
2012-10-1,63.8,56.0,50.5,59.1,54.2,50.5,100,94,84,29.94,29.69,12,2,17,0.00
2012-10-2,65.2,58.0,51.2,63.4,57.4,50.9,100,98,86,30.06,29.94,3,0,5,0.12
2012-10-3,63.7,61.5,59.8,63.7,61.5,59.8,100,100,100,30.17,30.04,1,0,3,0.07
2012-10-4,61.9,60.8,59.8,61.9,60.8,59.8,100,100,100,30.18,30.03,1,0,2,0.10
2012-10-5,72.1,63.3,54.5,66.7,61.1,54.5,100,93,70,30.03,29.90,3,0,5,0.01
2012-10-6,74.2,61.0,50.9,66.3,58.1,47.7,100,91,74,29.92,29.67,8,1,13,0.00
2012-10-7,55.9,50.2,42.1,50.4,46.5,40.5,98,88,74,30.08,29.92,4,0,5,0.12
2012-10-8,54.5,48.3,40.2,49.2,45.3,38.9,100,90,75,30.33,30.07,3,0,7,0.01
2012-10-9,53.9,49.8,45.3,51.8,48.5,43.7,100,95,89,30.33,30.15,3,0,6,0.00
2012-10-10,57.8,53.0,49.7,57.8,52.6,48.4,100,99,94,30.16,29.73,6,0,10,0.26
2012-10-11,55.7,48.7,39.4,50.9,42.2,36.7,95,79,61,30.14,29.81,8,2,14,0.00
2012-10-12,50.5,41.6,34.9,44.2,35.9,29.6,100,81,56,30.39,30.03,6,1,12,0.01
2012-10-13,50.7,39.4,27.7,38.0,31.5,24.7,95,75,49,30.51,30.33,6,0,9,0.00
2012-10-14,61.1,50.6,42.5,58.3,49.2,38.0,100,95,84,30.34,29.92,8,0,15,0.39
2012-10-15,71.8,63.0,54.1,66.4,61.3,54.1,100,95,82,29.92,29.61,11,1,13,0.16
2012-10-16,60.7,51.2,38.2,60.7,45.7,35.8,100,82,63,29.90,29.58,10,2,15,0.01
2012-10-17,59.0,44.6,32.0,47.8,39.1,29.9,97,82,57,30.02,29.90,4,0,5,0.00
2012-10-18,62.7,49.0,36.2,52.1,44.1,34.6,98,84,57,30.13,30.02,5,0,7,0.00
2012-10-19,63.2,56.5,47.6,63.1,56.2,46.0,100,99,93,30.11,29.74,5,0,8,0.61
2012-10-20,69.8,62.6,51.3,67.4,59.5,48.9,100,90,61,29.75,29.60,10,1,11,0.02
2012-10-21,60.4,51.1,40.1,49.1,45.5,38.7,100,82,62,29.89,29.75,10,1,14,0.00
2012-10-22,62.8,51.6,40.9,50.2,45.2,39.2,100,80,56,30.02,29.88,11,1,15,0.00
2012-10-23,61.3,49.6,38.0,52.4,45.3,36.4,98,86,65,30.14,30.02,4,0,5,0.00
2012-10-24,54.2,49.5,42.3,50.0,44.7,39.4,94,84,70,30.23,30.13,3,0,4,0.00
2012-10-25,61.0,50.9,40.4,49.8,44.8,38.5,97,81,56,30.33,30.23,3,0,6,0.00
2012-10-26,65.9,54.1,44.6,59.6,51.2,42.7,96,90,78,30.28,30.12,5,0,8,0.00
2012-10-27,61.8,53.3,45.3,58.5,51.8,44.5,100,95,87,30.14,30.01,2,0,4,0.00
2012-10-28,54.4,51.8,48.9,53.0,49.9,46.6,100,94,81,30.04,29.82,5,1,11,0.03
2012-10-29,60.8,54.8,49.1,60.8,54.8,49.1,100,100,100,29.81,29.21,22,4,26,2.81
2012-10-30,62.5,59.0,54.4,62.5,59.0,54.4,100,100,100,29.57,29.30,9,1,16,0.85
2012-10-31,54.4,52.4,47.8,54.4,51.8,45.5,100,98,91,29.56,29.47,4,0,6,0.01
2012-11-1,53.5,48.2,42.6,47.3,45.3,41.9,99,90,77,29.57,29.50,6,0,9,0.01
2012-11-2,50.4,46.9,43.0,46.0,42.8,39.1,99,86,74,29.63,29.54,5,0,8,0.00
2012-11-3,51.3,44.4,38.8,41.2,38.1,34.5,91,79,65,29.83,29.62,10,1,11,0.00
2012-11-4,48.8,42.2,34.8,41.0,36.0,31.5,94,79,70,29.97,29.82,7,1,11,0.00
2012-11-5,42.2,36.8,27.9,31.8,27.2,22.8,81,68,55,30.16,29.97,8,1,12,0.00
2012-11-6,40.1,30.3,22.4,25.7,21.9,18.8,89,72,47,30.26,30.15,5,0,6,0.00
2012-11-7,36.2,32.5,24.7,28.7,21.7,17.1,88,65,47,30.23,29.84,13,3,18,0.00
2012-11-8,38.1,35.2,31.4,36.5,34.0,28.7,100,95,87,29.83,29.70,11,2,11,0.37
2012-11-9,50.2,40.9,34.1,34.5,31.3,28.3,87,70,46,30.12,29.80,11,1,16,0.01
2012-11-10,52.3,39.3,29.3,37.9,31.9,27.0,93,76,50,30.49,30.11,4,0,7,0.00
2012-11-11,60.1,46.0,32.7,49.4,40.9,29.2,96,83,66,30.52,30.40,4,0,7,0.00
2012-11-12,64.1,54.6,41.1,59.0,50.8,39.1,96,87,71,30.47,30.21,6,0,11,0.00
2012-11-13,62.5,49.0,32.6,61.9,47.0,30.8,100,93,80,30.46,30.10,8,0,12,0.16
2012-11-14,44.4,36.1,28.8,32.7,29.8,25.1,95,79,56,30.58,30.45,3,0,11,0.00
2012-11-15,42.3,33.9,27.2,32.3,28.4,24.3,90,81,63,30.53,30.35,6,0,8,0.00
2012-11-16,43.2,34.2,28.7,32.1,28.7,25.3,93,81,60,30.48,30.33,2,0,4,0.00
2012-11-17,46.1,33.5,25.2,34.2,28.0,22.7,94,81,58,30.69,30.48,3,0,5,0.00
2012-11-18,44.6,32.1,23.0,35.4,27.2,19.9,92,82,65,30.77,30.66,2,0,4,0.00
2012-11-19,44.9,32.3,23.1,37.5,28.1,20.1,94,85,73,30.66,30.31,1,0,5,0.00
2012-11-20,45.2,33.1,23.0,34.0,27.8,20.3,94,82,61,30.30,30.17,3,0,4,0.01
2012-11-21,48.9,37.0,30.2,39.9,31.9,27.2,93,82,62,30.30,30.19,5,0,7,0.00
2012-11-22,52.0,39.1,31.3,43.9,35.3,28.8,95,87,68,30.32,30.14,3,0,4,0.00
2012-11-23,55.8,41.0,27.1,44.2,36.4,25.0,98,85,61,30.14,29.64,8,0,10,0.00
2012-11-24,46.5,40.2,32.2,44.4,29.3,19.9,97,66,51,29.67,29.56,11,2,16,0.00
2012-11-25,37.3,33.2,29.3,26.6,21.7,16.1,75,63,46,29.88,29.67,13,3,19,0.00
2012-11-26,44.1,35.9,29.8,30.4,26.5,22.6,80,69,48,30.26,29.88,9,2,13,0.00
2012-11-27,37.2,33.1,27.6,35.6,30.4,23.2,96,90,78,30.34,30.26,1,0,2,0.04
2012-11-28,37.8,33.2,27.0,33.6,28.5,23.3,96,83,65,30.26,30.14,7,0,8,0.00
2012-11-29,40.5,32.9,24.5,29.6,25.5,21.7,90,75,54,30.28,30.16,10,2,13,0.00
2012-11-30,37.1,30.9,27.6,29.8,13.5,3.0,80,51,31,30.58,30.21,6,1,8,0.00
2012-12-1,29.0,27.9,25.8,27.7,21.7,8.7,95,79,44,30.67,30.53,3,0,4,0.00
2012-12-2,46.9,35.8,28.6,46.9,35.4,27.6,100,98,95,30.53,30.04,12,1,12,0.09
2012-12-3,54.5,44.2,32.1,48.0,41.7,30.2,100,91,73,30.33,30.02,8,1,9,0.01
2012-12-4,54.7,39.9,30.4,54.7,39.5,28.7,100,99,93,30.35,29.96,6,0,8,0.00
2012-12-5,55.4,47.1,32.0,55.4,40.7,18.9,100,79,58,30.18,29.84,10,2,15,0.01
2012-12-6,39.0,30.9,23.2,24.5,21.0,18.6,83,67,50,30.36,30.18,8,1,11,0.00
2012-12-7,40.9,31.9,22.5,37.5,29.0,18.3,99,89,81,30.32,30.05,6,0,8,0.04
2012-12-8,40.9,39.3,37.4,40.9,39.2,37.3,100,100,98,30.06,29.90,5,0,5,0.33
2012-12-9,42.2,36.6,31.4,40.3,35.6,31.1,100,97,79,30.32,29.99,1,0,3,0.13
2012-12-10,46.3,41.5,36.9,46.3,41.5,36.9,100,100,100,30.18,29.50,4,0,6,0.41
2012-12-11,47.4,40.5,29.3,47.4,36.7,26.1,100,86,70,30.18,29.56,6,1,11,0.00
2012-12-12,36.3,29.5,25.2,29.0,25.8,22.8,94,86,71,30.46,30.18,2,0,5,0.00
2012-12-13,39.2,28.7,21.8,30.8,24.9,19.5,94,86,70,30.51,30.31,2,0,4,0.00
2012-12-14,43.8,30.9,21.5,30.5,25.2,18.8,96,81,56,30.32,30.08,7,1,10,0.01
2012-12-15,39.8,31.5,26.3,28.8,24.5,20.7,94,77,49,30.37,30.19,4,0,6,0.00
2012-12-16,28.4,26.8,25.6,26.1,22.3,18.6,97,83,72,30.37,30.13,3,0,5,0.00
2012-12-17,33.5,29.9,26.3,33.5,29.6,25.4,100,99,96,30.13,29.85,4,1,6,0.08
2012-12-18,40.8,36.4,33.3,40.8,36.4,33.3,100,100,100,29.85,29.44,2,0,4,1.02
2012-12-19,43.1,38.5,32.4,37.7,35.2,29.7,100,88,77,30.07,29.48,11,2,18,0.03
2012-12-20,39.3,34.1,27.8,33.6,30.8,26.3,96,88,76,30.25,30.05,3,0,5,0.00
2012-12-21,50.9,41.0,33.7,50.9,40.0,32.9,100,96,89,30.04,29.07,19,2,20,0.78
2012-12-22,37.6,33.3,28.4,35.4,26.4,18.8,92,76,61,29.68,29.24,13,3,17,0.00
2012-12-23,37.0,30.3,26.3,27.1,22.3,17.8,88,72,59,29.87,29.67,11,2,13,0.00
2012-12-24,37.4,30.6,25.7,25.1,23.1,21.8,90,74,54,30.08,29.87,10,1,10,0.00
2012-12-25,33.9,29.2,23.0,29.6,24.8,19.4,89,84,78,30.25,30.02,7,0,7,0.01
2012-12-26,31.7,25.8,16.9,30.0,20.8,13.4,98,82,60,30.35,29.95,5,1,6,0.00
2012-12-27,34.7,31.5,28.5,33.8,30.9,27.2,100,98,88,29.95,29.35,12,3,14,0.00
2012-12-28,34.1,29.4,25.2,26.8,24.3,21.0,90,81,72,30.03,29.68,14,2,16,0.01
2012-12-29,31.0,26.2,20.9,28.3,23.9,18.1,100,91,80,30.04,29.48,3,0,6,0.00
2012-12-30,28.8,25.4,20.1,27.6,19.2,10.5,98,78,61,30.01,29.50,15,3,16,0.00
2012-12-31,32.4,25.6,17.3,26.9,19.8,10.6,86,79,66,30.07,29.77,10,1,15,0.00
2013-1-1,34.1,29.1,17.5,28.6,19.8,7.2,86,68,55,29.96,29.72,15,2,21,0.00